This is the latest recevied weather packets stored in our database for station/object KD5HIA. If no packets are shown the sender has not sent any weather packets the latest 10 day(s).
| Time | Temp. | Humidity | Pressure | Rain* | Wind** | Luminosity | Snow |
|---|---|---|---|---|---|---|---|
| 1777259117 | 23.89° C | 79% | 1006.2 hPa | 0 mm | - | 0 W/m² | - |
| 1777258517 | 24.44° C | 78% | 1006.2 hPa | 0 mm | - | 0 W/m² | - |
| 1777257917 | 24.44° C | 77% | 1006.1 hPa | 0 mm | - | 0 W/m² | - |
| 1777257317 | 25° C | 77% | 1005.9 hPa | 0 mm | - | 0 W/m² | - |
| 1777256717 | 25.56° C | 75% | 1005.9 hPa | 0 mm | - | 0 W/m² | - |
| 1777256117 | 25.56° C | 74% | 1005.8 hPa | 0 mm | - | 0 W/m² | - |
| 1777255517 | 26.11° C | 72% | 1005.6 hPa | 0 mm | - | 0 W/m² | - |
| 1777254917 | 26.67° C | 71% | 1005.5 hPa | 0 mm | - | 0 W/m² | - |
| 1777254317 | 27.22° C | 69% | 1005.4 hPa | 0 mm | - | 0 W/m² | - |
| 1777253717 | 27.22° C | 66% | 1005 hPa | 0 mm | - | 0 W/m² | - |
| 1777253117 | 27.78° C | 61% | 1004.9 hPa | 0 mm | - | 0 W/m² | - |
| 1777252517 | 28.33° C | 60% | 1004.9 hPa | 0 mm | - | 5 W/m² | - |
| 1777251917 | 28.89° C | 59% | 1004.6 hPa | 0 mm | - | 16 W/m² | - |
| 1777251317 | 28.89° C | 57% | 1004.5 hPa | 0 mm | - | 33 W/m² | - |
| 1777250717 | 29.44° C | 55% | 1004.5 hPa | 0 mm | - | 60 W/m² | - |
| 1777250117 | 30° C | 49% | 1004.6 hPa | 0 mm | - | 87 W/m² | - |
| 1777249517 | 30.56° C | 50% | 1004.7 hPa | 0 mm | - | 129 W/m² | - |
| 1777248917 | 31.11° C | 44% | 1004.6 hPa | 0 mm | - | 168 W/m² | - |
| 1777248317 | 31.11° C | 40% | 1004.6 hPa | 0 mm | - | 198 W/m² | - |
| 1777247717 | 31.67° C | 40% | 1004.7 hPa | 0 mm | - | 242 W/m² | - |
| 1777247117 | 31.67° C | 40% | 1004.6 hPa | 0 mm | - | 283 W/m² | - |
| 1777246517 | 31.67° C | 41% | 1004.6 hPa | 0 mm | - | 311 W/m² | - |
| 1777245917 | 32.22° C | 40% | 1004.5 hPa | 0 mm | - | 347 W/m² | - |
| 1777245317 | 32.22° C | 39% | 1004.5 hPa | 0 mm | - | 379 W/m² | - |
| 1777244717 | 32.22° C | 42% | 1004.6 hPa | 0 mm | - | 408 W/m² | - |
* Rain latest hour (hover to see other rain measurements)
** Current wind speed in m/s (hover to see current wind gust speed)